createdAt,value
2023-04-20T00:00:58.815Z,98610.00
2023-04-20T00:03:27.307Z,98606.00
2023-04-20T00:05:54.258Z,98601.00
2023-04-20T00:08:21.017Z,98601.00
2023-04-20T00:10:47.509Z,98594.00
2023-04-20T00:13:14.016Z,98599.00
2023-04-20T00:15:40.504Z,98585.00
2023-04-20T00:18:07.165Z,98590.00
2023-04-20T00:20:35.107Z,98579.00
2023-04-20T00:23:01.774Z,98575.00
2023-04-20T00:25:29.592Z,98570.00
2023-04-20T00:27:56.717Z,98556.00
2023-04-20T00:30:23.302Z,98568.00
2023-04-20T00:32:49.822Z,98555.00
2023-04-20T00:35:16.468Z,98557.00
2023-04-20T00:37:44.248Z,98553.00
2023-04-20T00:40:11.082Z,98545.00
2023-04-20T00:42:37.629Z,98555.00
2023-04-20T00:45:04.477Z,98546.00
2023-04-20T00:47:31.003Z,98541.00
2023-04-20T00:49:57.563Z,98540.00
2023-04-20T00:52:24.099Z,98530.00
2023-04-20T00:54:50.732Z,98530.00
2023-04-20T00:57:23.785Z,98528.00
2023-04-20T00:59:54.005Z,98519.00
2023-04-20T01:02:22.711Z,98522.00
2023-04-20T01:04:49.447Z,98514.00
2023-04-20T01:07:16.337Z,98515.00
2023-04-20T01:09:43.022Z,98503.00
2023-04-20T01:12:10.543Z,98499.00
2023-04-20T01:14:37.219Z,98492.00
2023-04-20T01:17:04.539Z,98489.00
2023-04-20T01:19:31.035Z,98502.00
2023-04-20T01:21:57.530Z,98492.00
2023-04-20T01:24:24.041Z,98492.00
2023-04-20T01:26:51.139Z,98484.00
2023-04-20T01:29:17.789Z,98479.00
2023-04-20T01:31:44.432Z,98485.00
2023-04-20T01:34:11.043Z,98481.00
2023-04-20T01:36:38.613Z,98477.00
2023-04-20T01:39:07.107Z,98468.00
2023-04-20T01:41:33.649Z,98476.00
2023-04-20T01:44:00.166Z,98466.00
2023-04-20T01:46:26.795Z,98466.00
2023-04-20T01:48:53.250Z,98460.00
2023-04-20T01:51:19.760Z,98464.00
2023-04-20T01:53:46.276Z,98453.00
2023-04-20T01:56:12.778Z,98457.00
2023-04-20T01:58:39.266Z,98451.00
2023-04-20T02:01:05.961Z,98447.00
2023-04-20T02:03:33.609Z,98450.00
2023-04-20T02:06:00.213Z,98449.00
2023-04-20T02:08:29.624Z,98445.00
2023-04-20T02:10:56.080Z,98443.00
2023-04-20T02:13:22.558Z,98450.00
2023-04-20T02:15:49.060Z,98447.00
2023-04-20T02:18:16.184Z,98446.00
2023-04-20T02:20:43.830Z,98445.00
2023-04-20T02:23:10.804Z,98443.00
2023-04-20T02:25:37.730Z,98436.00
2023-04-20T02:28:04.968Z,98439.00
2023-04-20T02:30:31.742Z,98437.00
2023-04-20T02:32:59.268Z,98429.00
2023-04-20T02:35:26.187Z,98422.00
2023-04-20T02:37:52.664Z,98420.00
2023-04-20T02:40:19.305Z,98415.00
2023-04-20T02:42:45.927Z,98420.00
2023-04-20T02:45:12.468Z,98413.00
2023-04-20T02:47:42.098Z,98406.00
2023-04-20T02:50:11.057Z,98410.00
2023-04-20T02:52:54.623Z,98402.00
2023-04-20T02:55:21.217Z,98407.00
2023-04-20T02:57:50.717Z,98400.00
2023-04-20T03:00:18.641Z,98395.00
2023-04-20T03:03:03.691Z,98400.00
2023-04-20T03:05:31.333Z,98392.00
2023-04-20T03:07:58.113Z,98389.00
2023-04-20T03:10:26.160Z,98378.00
2023-04-20T03:13:05.134Z,98375.00
2023-04-20T03:15:36.745Z,98378.00
2023-04-20T03:18:15.433Z,98381.00
2023-04-20T03:20:41.913Z,98373.00
2023-04-20T03:23:08.540Z,98380.00
2023-04-20T03:25:35.910Z,98369.00
2023-04-20T03:28:09.771Z,98369.00
2023-04-20T03:30:38.698Z,98375.00
2023-04-20T03:33:11.805Z,98372.00
2023-04-20T03:35:39.416Z,98369.00
2023-04-20T03:38:06.555Z,98369.00
2023-04-20T03:40:33.077Z,98371.00
2023-04-20T03:42:59.593Z,98366.00
2023-04-20T03:45:27.970Z,98373.00
2023-04-20T03:47:54.579Z,98366.00
2023-04-20T03:50:22.084Z,98364.00
2023-04-20T03:52:49.171Z,98364.00
2023-04-20T03:55:15.786Z,98366.00
2023-04-20T03:57:47.810Z,98362.00
2023-04-20T04:00:14.751Z,98359.00
2023-04-20T04:02:47.289Z,98363.00
2023-04-20T04:05:19.244Z,98355.00
2023-04-20T04:07:48.789Z,98356.00
2023-04-20T04:10:15.976Z,98363.00
2023-04-20T04:12:42.587Z,98349.00
2023-04-20T04:15:09.963Z,98358.00
2023-04-20T04:17:44.467Z,98363.00
2023-04-20T04:20:12.089Z,98360.00
2023-04-20T04:22:38.730Z,98360.00
2023-04-20T04:25:28.570Z,98351.00
2023-04-20T04:27:55.307Z,98355.00
2023-04-20T04:30:24.061Z,98352.00
2023-04-20T04:32:51.094Z,98359.00
2023-04-20T04:35:17.994Z,98353.00
2023-04-20T04:37:45.058Z,98355.00
2023-04-20T04:40:12.412Z,98348.00
2023-04-20T04:42:39.180Z,98344.00
2023-04-20T04:45:07.650Z,98356.00
2023-04-20T04:47:37.146Z,98352.00
2023-04-20T04:50:06.229Z,98344.00
2023-04-20T04:52:33.491Z,98339.00
2023-04-20T04:55:00.125Z,98340.00
2023-04-20T04:57:26.729Z,98346.00
2023-04-20T04:59:53.641Z,98342.00
2023-04-20T05:02:20.481Z,98347.00
2023-04-20T05:04:47.302Z,98346.00
2023-04-20T05:07:15.257Z,98353.00
2023-04-20T05:09:41.787Z,98348.00
2023-04-20T05:12:08.293Z,98342.00
2023-04-20T05:14:35.299Z,98356.00
2023-04-20T05:17:02.045Z,98346.00
2023-04-20T05:19:28.624Z,98353.00
2023-04-20T05:21:55.135Z,98350.00
2023-04-20T05:24:21.672Z,98351.00
2023-04-20T05:26:48.153Z,98352.00
2023-04-20T05:29:15.993Z,98365.00
2023-04-20T05:31:42.720Z,98356.00
2023-04-20T05:34:09.304Z,98355.00
2023-04-20T05:36:35.764Z,98360.00
2023-04-20T05:39:02.418Z,98358.00
2023-04-20T05:41:28.872Z,98360.00
2023-04-20T05:43:56.533Z,98352.00
2023-04-20T05:46:23.270Z,98360.00
2023-04-20T05:48:49.922Z,98349.00
2023-04-20T05:51:16.377Z,98356.00
2023-04-20T05:53:42.902Z,98352.00
2023-04-20T05:56:09.441Z,98350.00
2023-04-20T05:58:37.568Z,98349.00
2023-04-20T06:01:04.885Z,98349.00
2023-04-20T06:03:31.630Z,98347.00
2023-04-20T06:05:58.313Z,98358.00
2023-04-20T06:08:24.959Z,98338.00
2023-04-20T06:10:58.370Z,98339.00
2023-04-20T06:13:26.255Z,98342.00
2023-04-20T06:15:53.916Z,98339.00
2023-04-20T06:18:20.712Z,98347.00
2023-04-20T06:20:47.199Z,98351.00
2023-04-20T06:23:13.832Z,98338.00
2023-04-20T06:25:40.360Z,98343.00
2023-04-20T06:28:07.620Z,98343.00
2023-04-20T06:30:34.968Z,98346.00
2023-04-20T06:33:02.969Z,98335.00
2023-04-20T06:35:29.519Z,98337.00
2023-04-20T06:37:57.451Z,98334.00
2023-04-20T06:40:27.108Z,98338.00
2023-04-20T06:42:53.588Z,98338.00
2023-04-20T06:45:20.404Z,98333.00
2023-04-20T06:47:46.936Z,98330.00
2023-04-20T06:50:13.588Z,98326.00
2023-04-20T06:52:41.048Z,98333.00
2023-04-20T06:55:08.027Z,98331.00
2023-04-20T06:57:34.516Z,98331.00
2023-04-20T07:00:01.446Z,98334.00
2023-04-20T07:02:28.064Z,98333.00
2023-04-20T07:05:01.401Z,98332.00
2023-04-20T07:07:27.913Z,98336.00
2023-04-20T07:09:54.384Z,98335.00
2023-04-20T07:12:20.836Z,98325.00
2023-04-20T07:14:47.317Z,98332.00
2023-04-20T07:17:13.811Z,98322.00
2023-04-20T07:19:40.361Z,98335.00
2023-04-20T07:22:06.808Z,98330.00
2023-04-20T07:24:33.280Z,98335.00
2023-04-20T07:26:59.758Z,98338.00
2023-04-20T07:29:26.241Z,98329.00
2023-04-20T07:31:52.777Z,98335.00
2023-04-20T07:34:19.807Z,98334.00
2023-04-20T07:36:46.600Z,98327.00
2023-04-20T07:39:13.053Z,98329.00
2023-04-20T07:41:39.490Z,98330.00
2023-04-20T07:44:06.004Z,98328.00
2023-04-20T07:46:32.537Z,98333.00
2023-04-20T07:48:59.061Z,98330.00
2023-04-20T07:51:26.602Z,98325.00
2023-04-20T07:53:53.097Z,98337.00
2023-04-20T07:56:19.609Z,98328.00
2023-04-20T07:58:46.147Z,98332.00
2023-04-20T08:01:12.651Z,98329.00
2023-04-20T08:03:39.288Z,98322.00
2023-04-20T08:06:06.309Z,98330.00
2023-04-20T08:08:33.047Z,98325.00
2023-04-20T08:10:59.611Z,98322.00
2023-04-20T08:13:27.540Z,98330.00
2023-04-20T08:15:54.213Z,98336.00
2023-04-20T08:18:21.536Z,98331.00
2023-04-20T08:20:48.188Z,98336.00
2023-04-20T08:23:14.723Z,98331.00
2023-04-20T08:25:41.261Z,98338.00
2023-04-20T08:28:11.955Z,98333.00
2023-04-20T08:30:42.192Z,98330.00
2023-04-20T08:33:08.815Z,98332.00
2023-04-20T08:35:35.558Z,98324.00
2023-04-20T08:38:02.207Z,98326.00
2023-04-20T08:40:30.709Z,98330.00
2023-04-20T08:42:57.791Z,98329.00
2023-04-20T08:45:24.360Z,98317.00
2023-04-20T08:47:52.058Z,98299.00
2023-04-20T08:50:20.278Z,98293.00
2023-04-20T08:52:46.913Z,98300.00
2023-04-20T08:55:18.113Z,98299.00
2023-04-20T08:57:45.057Z,98301.00
2023-04-20T09:00:13.751Z,98299.00
2023-04-20T09:02:54.846Z,98299.00
2023-04-20T09:05:27.164Z,98293.00
2023-04-20T09:07:55.886Z,98293.00
2023-04-20T09:10:24.074Z,98290.00
2023-04-20T09:12:51.977Z,98302.00
2023-04-20T09:15:27.073Z,98291.00
2023-04-20T09:17:53.768Z,98290.00
2023-04-20T09:20:33.585Z,98293.00
2023-04-20T09:23:14.669Z,98286.00
2023-04-20T09:25:43.435Z,98287.00
2023-04-20T09:28:10.209Z,98283.00
2023-04-20T09:30:41.612Z,98273.00
2023-04-20T09:33:10.740Z,98278.00
2023-04-20T09:35:41.998Z,98279.00
2023-04-20T09:38:09.579Z,98298.00
2023-04-20T09:40:36.534Z,98262.00
2023-04-20T09:43:16.972Z,98278.00
2023-04-20T09:45:44.012Z,98267.00
2023-04-20T09:48:11.726Z,98272.00
2023-04-20T09:50:47.912Z,98268.00
2023-04-20T09:53:19.942Z,98268.00
2023-04-20T09:55:51.248Z,98260.00
2023-04-20T09:58:21.540Z,98256.00
2023-04-20T10:00:49.019Z,98250.00
2023-04-20T10:03:19.582Z,98244.00
2023-04-20T10:05:46.514Z,98245.00
2023-04-20T10:08:13.341Z,98240.00
2023-04-20T10:10:50.144Z,98244.00
2023-04-20T10:13:19.505Z,98244.00
2023-04-20T10:15:46.293Z,98244.00
2023-04-20T10:18:24.573Z,98246.00
2023-04-20T10:20:52.277Z,98235.00
2023-04-20T10:23:19.804Z,98234.00
2023-04-20T10:25:57.992Z,98232.00
2023-04-20T10:28:25.033Z,98237.00
2023-04-20T10:30:53.001Z,98234.00
2023-04-20T10:33:20.801Z,98230.00
2023-04-20T10:35:47.293Z,98236.00
2023-04-20T10:38:14.156Z,98235.00
2023-04-20T10:40:40.672Z,98228.00
2023-04-20T10:43:24.385Z,98219.00
2023-04-20T10:45:51.478Z,98225.00
2023-04-20T10:48:18.445Z,98223.00
2023-04-20T10:50:45.501Z,98214.00
2023-04-20T10:53:22.736Z,98208.00
2023-04-20T10:56:01.543Z,98219.00
2023-04-20T10:58:28.399Z,98210.00
2023-04-20T11:01:02.581Z,98216.00
2023-04-20T11:03:30.540Z,98217.00
2023-04-20T11:06:04.239Z,98206.00
2023-04-20T11:08:37.700Z,98211.00
2023-04-20T11:11:04.355Z,98194.00
2023-04-20T11:13:30.929Z,98182.00
2023-04-20T11:15:57.541Z,98180.00
2023-04-20T11:18:24.044Z,98174.00
2023-04-20T11:20:52.245Z,98180.00
2023-04-20T11:23:23.098Z,98171.00
2023-04-20T11:25:53.756Z,98172.00
2023-04-20T11:28:20.323Z,98168.00
2023-04-20T11:30:47.218Z,98170.00
2023-04-20T11:33:14.307Z,98168.00
2023-04-20T11:35:42.666Z,98177.00
2023-04-20T11:38:09.581Z,98166.00
2023-04-20T11:40:36.412Z,98164.00
2023-04-20T11:43:04.596Z,98162.00
2023-04-20T11:45:35.728Z,98156.00
2023-04-20T11:48:03.434Z,98157.00
2023-04-20T11:50:30.314Z,98152.00
2023-04-20T11:52:56.803Z,98156.00
2023-04-20T11:55:23.344Z,98163.00
2023-04-20T11:57:50.252Z,98156.00
2023-04-20T12:00:18.092Z,98156.00
2023-04-20T12:02:44.763Z,98163.00
2023-04-20T12:05:12.047Z,98160.00
2023-04-20T12:07:38.594Z,98166.00
2023-04-20T12:10:06.842Z,98162.00
2023-04-20T12:12:34.015Z,98157.00
2023-04-20T12:15:00.948Z,98157.00
2023-04-20T12:17:27.410Z,98158.00
2023-04-20T12:19:54.357Z,98162.00
2023-04-20T12:22:20.810Z,98163.00
2023-04-20T12:24:47.307Z,98161.00
2023-04-20T12:27:13.760Z,98158.00
2023-04-20T12:29:40.937Z,98153.00
2023-04-20T12:32:07.401Z,98155.00
2023-04-20T12:34:34.156Z,98141.00
2023-04-20T12:37:01.232Z,98138.00
2023-04-20T12:39:27.768Z,98144.00
2023-04-20T12:41:54.216Z,98140.00
2023-04-20T12:44:20.933Z,98145.00
2023-04-20T12:46:48.041Z,98136.00
2023-04-20T12:49:14.612Z,98153.00
2023-04-20T12:51:41.135Z,98144.00
2023-04-20T12:54:08.219Z,98143.00
2023-04-20T12:56:34.739Z,98145.00
2023-04-20T12:59:01.206Z,98154.00
2023-04-20T13:01:28.012Z,98153.00
2023-04-20T13:03:56.045Z,98156.00
2023-04-20T13:06:22.683Z,98157.00
2023-04-20T13:08:50.438Z,98163.00
2023-04-20T13:11:17.918Z,98188.00
2023-04-20T13:13:44.506Z,98201.00
2023-04-20T13:16:11.377Z,98234.00
2023-04-20T13:18:38.140Z,98245.00
2023-04-20T13:21:04.757Z,98268.00
2023-04-20T13:23:31.406Z,98252.00
2023-04-20T13:26:00.586Z,98244.00
2023-04-20T13:28:30.261Z,98245.00
2023-04-20T13:30:57.582Z,98237.00
2023-04-20T13:33:24.239Z,98226.00
2023-04-20T13:35:50.827Z,98225.00
2023-04-20T13:38:17.609Z,98223.00
2023-04-20T13:40:44.523Z,98220.00
2023-04-20T13:43:12.242Z,98211.00
2023-04-20T13:45:39.201Z,98206.00
2023-04-20T13:48:06.105Z,98198.00
2023-04-20T13:50:32.626Z,98196.00
2023-04-20T13:52:59.187Z,98207.00
2023-04-20T13:55:27.003Z,98197.00
2023-04-20T13:57:53.824Z,98201.00
2023-04-20T14:00:20.651Z,98187.00
2023-04-20T14:02:47.355Z,98189.00
2023-04-20T14:05:13.904Z,98190.00
2023-04-20T14:07:40.499Z,98167.00
2023-04-20T14:10:07.777Z,98171.00
2023-04-20T14:12:34.722Z,98163.00
2023-04-20T14:15:01.359Z,98167.00
2023-04-20T14:17:27.939Z,98175.00
2023-04-20T14:19:54.612Z,98171.00
2023-04-20T14:22:21.088Z,98162.00
2023-04-20T14:24:50.427Z,98157.00
2023-04-20T14:27:17.160Z,98152.00
2023-04-20T14:29:43.600Z,98156.00
2023-04-20T14:32:10.206Z,98150.00
2023-04-20T14:34:36.727Z,98153.00
2023-04-20T14:37:03.278Z,98147.00
2023-04-20T14:39:29.778Z,98142.00
2023-04-20T14:41:56.295Z,98145.00
2023-04-20T14:44:22.852Z,98150.00
2023-04-20T14:46:49.450Z,98150.00
2023-04-20T14:49:16.011Z,98148.00
2023-04-20T14:51:42.524Z,98147.00
2023-04-20T14:54:09.048Z,98145.00
2023-04-20T14:56:35.833Z,98143.00
2023-04-20T14:59:02.366Z,98139.00
2023-04-20T15:01:29.161Z,98140.00
2023-04-20T15:03:56.084Z,98138.00
2023-04-20T15:06:22.873Z,98139.00
2023-04-20T15:08:49.508Z,98131.00
2023-04-20T15:11:16.067Z,98141.00
2023-04-20T15:13:43.659Z,98149.00
2023-04-20T15:16:10.332Z,98149.00
2023-04-20T15:18:36.781Z,98156.00
2023-04-20T15:21:03.448Z,98154.00
2023-04-20T15:23:30.172Z,98162.00
2023-04-20T15:25:56.712Z,98160.00
2023-04-20T15:28:23.298Z,98163.00
2023-04-20T15:30:49.770Z,98162.00
2023-04-20T15:33:16.322Z,98165.00
2023-04-20T15:35:42.856Z,98162.00
2023-04-20T15:38:12.151Z,98164.00
2023-04-20T15:40:38.937Z,98161.00
2023-04-20T15:43:06.343Z,98167.00
2023-04-20T15:45:32.970Z,98163.00
2023-04-20T15:48:00.797Z,98165.00
2023-04-20T15:50:27.567Z,98171.00
2023-04-20T15:52:54.540Z,98172.00
2023-04-20T15:55:21.234Z,98176.00
2023-04-20T15:57:47.882Z,98167.00
2023-04-20T16:00:15.077Z,98174.00
2023-04-20T16:02:41.834Z,98181.00
2023-04-20T16:05:09.416Z,98177.00
2023-04-20T16:07:36.146Z,98177.00
2023-04-20T16:10:03.039Z,98178.00
2023-04-20T16:12:29.709Z,98165.00
2023-04-20T16:14:57.324Z,98174.00
2023-04-20T16:17:23.994Z,98175.00
2023-04-20T16:19:50.605Z,98179.00
2023-04-20T16:22:17.088Z,98182.00
2023-04-20T16:24:43.695Z,98176.00
2023-04-20T16:27:10.334Z,98184.00
2023-04-20T16:29:36.847Z,98182.00
2023-04-20T16:32:03.442Z,98173.00
2023-04-20T16:34:31.480Z,98168.00
2023-04-20T16:36:58.542Z,98171.00
2023-04-20T16:39:25.041Z,98167.00
2023-04-20T16:41:51.586Z,98166.00
2023-04-20T16:44:18.396Z,98167.00
2023-04-20T16:46:49.486Z,98158.00
2023-04-20T16:49:16.068Z,98168.00
2023-04-20T16:51:42.707Z,98167.00
2023-04-20T16:54:10.227Z,98164.00
2023-04-20T16:56:37.316Z,98163.00
2023-04-20T16:59:04.047Z,98165.00
2023-04-20T17:01:30.801Z,98175.00
2023-04-20T17:03:57.758Z,98169.00
2023-04-20T17:06:24.344Z,98170.00
2023-04-20T17:08:50.914Z,98166.00
2023-04-20T17:11:19.447Z,98167.00
2023-04-20T17:13:45.958Z,98170.00
2023-04-20T17:16:12.487Z,98166.00
2023-04-20T17:18:41.676Z,98173.00
2023-04-20T17:21:08.475Z,98172.00
2023-04-20T17:23:35.025Z,98166.00
2023-04-20T17:26:02.567Z,98177.00
2023-04-20T17:28:29.311Z,98166.00
2023-04-20T17:30:58.987Z,98163.00
2023-04-20T17:33:25.464Z,98167.00
2023-04-20T17:35:52.064Z,98160.00
2023-04-20T17:38:18.572Z,98166.00
2023-04-20T17:40:45.073Z,98182.00
2023-04-20T17:43:11.537Z,98171.00
2023-04-20T17:45:38.104Z,98163.00
2023-04-20T17:48:05.544Z,98159.00
2023-04-20T17:50:33.156Z,98160.00
2023-04-20T17:53:03.832Z,98154.00
2023-04-20T17:55:30.437Z,98156.00
2023-04-20T17:57:56.928Z,98153.00
2023-04-20T18:00:23.829Z,98148.00
2023-04-20T18:02:50.678Z,98159.00
2023-04-20T18:05:18.094Z,98166.00
2023-04-20T18:07:44.815Z,98161.00
2023-04-20T18:10:13.490Z,98158.00
2023-04-20T18:12:40.027Z,98161.00
2023-04-20T18:15:08.287Z,98164.00
2023-04-20T18:17:35.132Z,98163.00
2023-04-20T18:20:01.782Z,98159.00
2023-04-20T18:22:28.446Z,98162.00
2023-04-20T18:24:54.915Z,98164.00
2023-04-20T18:27:21.445Z,98175.00
2023-04-20T18:29:47.985Z,98170.00
2023-04-20T18:32:16.339Z,98168.00
2023-04-20T18:34:42.883Z,98160.00
2023-04-20T18:37:09.855Z,98162.00
2023-04-20T18:39:36.844Z,98164.00
2023-04-20T18:42:03.419Z,98168.00
2023-04-20T18:44:30.273Z,98165.00
2023-04-20T18:46:57.035Z,98173.00
2023-04-20T18:49:23.629Z,98161.00
2023-04-20T18:51:50.272Z,98156.00
2023-04-20T18:54:16.961Z,98159.00
2023-04-20T18:56:43.642Z,98163.00
2023-04-20T18:59:10.724Z,98166.00
2023-04-20T19:01:40.531Z,98171.00
2023-04-20T19:04:10.522Z,98172.00
2023-04-20T19:06:37.205Z,98182.00
2023-04-20T19:09:04.939Z,98186.00
2023-04-20T19:11:33.185Z,98186.00
2023-04-20T19:13:59.724Z,98189.00
2023-04-20T19:16:29.444Z,98193.00
2023-04-20T19:18:56.645Z,98194.00
2023-04-20T19:21:23.159Z,98196.00
2023-04-20T19:23:49.707Z,98190.00
2023-04-20T19:26:17.147Z,98187.00
2023-04-20T19:28:45.713Z,98179.00
2023-04-20T19:31:13.219Z,98192.00
2023-04-20T19:33:40.617Z,98188.00
2023-04-20T19:36:08.242Z,98194.00
2023-04-20T19:38:37.397Z,98192.00
2023-04-20T19:41:05.991Z,98195.00
2023-04-20T19:43:32.559Z,98198.00
2023-04-20T19:45:59.160Z,98195.00
2023-04-20T19:48:25.975Z,98195.00
2023-04-20T19:50:52.685Z,98192.00
2023-04-20T19:53:19.227Z,98188.00
2023-04-20T19:55:48.661Z,98193.00
2023-04-20T19:58:15.265Z,98200.00
2023-04-20T20:00:41.772Z,98192.00
2023-04-20T20:03:08.509Z,98185.00
2023-04-20T20:05:35.153Z,98195.00
2023-04-20T20:08:01.616Z,98197.00
2023-04-20T20:10:28.268Z,98198.00
2023-04-20T20:12:54.737Z,98192.00
2023-04-20T20:15:21.170Z,98189.00
2023-04-20T20:17:47.840Z,98189.00
2023-04-20T20:20:15.449Z,98199.00
2023-04-20T20:22:48.132Z,98201.00
2023-04-20T20:25:16.418Z,98197.00
2023-04-20T20:27:43.176Z,98206.00
2023-04-20T20:30:10.622Z,98199.00
2023-04-20T20:32:37.137Z,98196.00
2023-04-20T20:35:04.691Z,98194.00
2023-04-20T20:37:34.719Z,98192.00
2023-04-20T20:40:07.289Z,98198.00
2023-04-20T20:42:34.088Z,98196.00
2023-04-20T20:45:00.960Z,98198.00
2023-04-20T20:47:27.557Z,98208.00
2023-04-20T20:49:54.115Z,98205.00
2023-04-20T20:52:21.084Z,98192.00
2023-04-20T20:54:47.553Z,98198.00
2023-04-20T20:57:14.112Z,98189.00
2023-04-20T20:59:40.583Z,98193.00
2023-04-20T21:02:07.174Z,98187.00
2023-04-20T21:04:33.793Z,98198.00
2023-04-20T21:07:00.409Z,98187.00
2023-04-20T21:09:27.540Z,98183.00
2023-04-20T21:11:54.182Z,98187.00
2023-04-20T21:14:20.679Z,98181.00
2023-04-20T21:16:47.200Z,98186.00
2023-04-20T21:19:13.771Z,98188.00
2023-04-20T21:21:40.222Z,98176.00
2023-04-20T21:24:06.856Z,98176.00
2023-04-20T21:26:36.050Z,98185.00
2023-04-20T21:29:03.448Z,98177.00
2023-04-20T21:31:30.764Z,98177.00
2023-04-20T21:33:57.964Z,98181.00
2023-04-20T21:36:24.458Z,98181.00
2023-04-20T21:38:50.973Z,98178.00
2023-04-20T21:41:17.410Z,98174.00
2023-04-20T21:43:43.957Z,98167.00
2023-04-20T21:46:14.961Z,98169.00
2023-04-20T21:48:41.619Z,98175.00
2023-04-20T21:51:08.193Z,98173.00
2023-04-20T21:53:34.677Z,98170.00
2023-04-20T21:56:01.159Z,98175.00
2023-04-20T21:58:27.653Z,98167.00
2023-04-20T22:00:54.081Z,98172.00
2023-04-20T22:03:20.646Z,98168.00
2023-04-20T22:05:47.266Z,98173.00
2023-04-20T22:08:14.481Z,98170.00
2023-04-20T22:10:41.294Z,98163.00
2023-04-20T22:13:07.920Z,98160.00
2023-04-20T22:15:34.402Z,98159.00
2023-04-20T22:18:00.991Z,98171.00
2023-04-20T22:20:27.792Z,98173.00
2023-04-20T22:22:54.358Z,98158.00
2023-04-20T22:25:21.025Z,98165.00
2023-04-20T22:27:47.532Z,98166.00
2023-04-20T22:30:13.979Z,98164.00
2023-04-20T22:32:40.985Z,98167.00
2023-04-20T22:35:07.968Z,98159.00
2023-04-20T22:37:34.727Z,98167.00
2023-04-20T22:40:01.287Z,98159.00
2023-04-20T22:42:27.848Z,98164.00
2023-04-20T22:44:54.316Z,98157.00
2023-04-20T22:47:21.143Z,98162.00
2023-04-20T22:49:48.954Z,98158.00
2023-04-20T22:52:15.440Z,98155.00
2023-04-20T22:54:47.722Z,98158.00
2023-04-20T22:57:15.778Z,98162.00
2023-04-20T22:59:42.301Z,98156.00
2023-04-20T23:02:08.894Z,98148.00
2023-04-20T23:04:37.695Z,98153.00
2023-04-20T23:07:04.988Z,98148.00
2023-04-20T23:09:32.181Z,98155.00
2023-04-20T23:11:58.617Z,98150.00
2023-04-20T23:14:25.854Z,98150.00
2023-04-20T23:16:52.368Z,98161.00
2023-04-20T23:19:19.070Z,98156.00
2023-04-20T23:21:45.796Z,98153.00
2023-04-20T23:24:12.236Z,98153.00
2023-04-20T23:26:38.722Z,98157.00
2023-04-20T23:29:05.664Z,98163.00
2023-04-20T23:31:32.174Z,98155.00
2023-04-20T23:33:58.682Z,98156.00
2023-04-20T23:36:26.283Z,98160.00
2023-04-20T23:38:52.742Z,98158.00
2023-04-20T23:41:19.268Z,98155.00
2023-04-20T23:43:45.811Z,98159.00
2023-04-20T23:46:14.321Z,98165.00
2023-04-20T23:48:40.972Z,98161.00
2023-04-20T23:51:07.418Z,98157.00
2023-04-20T23:53:37.720Z,98161.00
2023-04-20T23:56:05.280Z,98163.00
2023-04-20T23:58:32.341Z,98158.00
